TRA38M EHAM-LPMA
Flight info
| Callsign | TRA38M |
|---|---|
| Flight time | N/A |
| Altitude | 36000 |
| Route | IDRID L980 LOGAN DCT SAM/N0438F350 M195 LORKU DCT EBOMO DCT COQUE DCT KORUL/N0443F370 DCT DEMOS DCT ASMAR DCT LIDRO |
| Aircraft | A21N/M-SBDE2E3FGHIJ1J5M1P2RWXYZ/LB1D1G1 |
Departure
| Time | 2026-04-27 11:23 |
|---|---|
| Airport | Amsterdam Airport Schiphol (EHAM) |
Arrival
| Time | N/A |
|---|---|
| Airport | Cristiano Ronaldo International Airport (LPMA) |
| Time | Latitude | Longitude | Altitude | Speed | Heading |
|---|---|---|---|---|---|
| 2026-04-27 10:10 | 52.30915 | 4.76630 | 4 ft | 0 kts | 182° |
| 2026-04-27 11:01 | 52.30930 | 4.76632 | 4 ft | 4 kts | 192° |
| 2026-04-27 11:01 | 52.30954 | 4.76649 | 4 ft | 5 kts | 216° |
| 2026-04-27 11:02 | 52.30970 | 4.76671 | 4 ft | 5 kts | 220° |
| 2026-04-27 11:02 | 52.30990 | 4.76701 | 4 ft | 5 kts | 235° |
| 2026-04-27 11:02 | 52.30998 | 4.76731 | 4 ft | 4 kts | 263° |
| 2026-04-27 11:02 | 52.31002 | 4.76771 | 4 ft | 5 kts | 245° |
| 2026-04-27 11:03 | 52.31015 | 4.76795 | 4 ft | 5 kts | 214° |
| 2026-04-27 11:03 | 52.31037 | 4.76820 | 4 ft | 6 kts | 214° |
| 2026-04-27 11:03 | 52.31057 | 4.76841 | 4 ft | 5 kts | 214° |
| 2026-04-27 11:03 | 52.31076 | 4.76869 | 4 ft | 6 kts | 237° |
| 2026-04-27 11:04 | 52.31085 | 4.76908 | 4 ft | 6 kts | 268° |
| 2026-04-27 11:04 | 52.31085 | 4.76946 | 4 ft | 5 kts | 272° |
| 2026-04-27 11:04 | 52.31084 | 4.76990 | 4 ft | 5 kts | 274° |
| 2026-04-27 11:04 | 52.31082 | 4.77034 | 4 ft | 5 kts | 274° |
| 2026-04-27 11:05 | 52.31081 | 4.77056 | 4 ft | 1 kts | 273° |
| 2026-04-27 11:10 | 52.31081 | 4.77055 | 4 ft | 0 kts | 273° |
| 2026-04-27 11:10 | 52.31082 | 4.77033 | 4 ft | 6 kts | 274° |
| 2026-04-27 11:10 | 52.31103 | 4.76969 | 4 ft | 8 kts | 319° |
| 2026-04-27 11:11 | 52.31160 | 4.76954 | 4 ft | 11 kts | 20° |
| 2026-04-27 11:11 | 52.31230 | 4.77028 | 4 ft | 17 kts | 34° |
| 2026-04-27 11:11 | 52.31329 | 4.77134 | 4 ft | 13 kts | 33° |
| 2026-04-27 11:11 | 52.31411 | 4.77190 | 4 ft | 14 kts | 1° |
| 2026-04-27 11:12 | 52.31510 | 4.77198 | 4 ft | 15 kts | 4° |
| 2026-04-27 11:12 | 52.31569 | 4.77092 | 4 ft | 15 kts | 264° |
| 2026-04-27 11:12 | 52.31563 | 4.76919 | 4 ft | 16 kts | 266° |
| 2026-04-27 11:12 | 52.31557 | 4.76732 | 4 ft | 17 kts | 266° |
| 2026-04-27 11:13 | 52.31549 | 4.76534 | 4 ft | 18 kts | 266° |
| 2026-04-27 11:13 | 52.31542 | 4.76332 | 5 ft | 19 kts | 266° |
| 2026-04-27 11:13 | 52.31534 | 4.76107 | 5 ft | 20 kts | 266° |
| 2026-04-27 11:13 | 52.31526 | 4.75879 | 4 ft | 21 kts | 266° |
| 2026-04-27 11:14 | 52.31518 | 4.75641 | 4 ft | 21 kts | 267° |
| 2026-04-27 11:14 | 52.31511 | 4.75412 | 4 ft | 19 kts | 267° |
| 2026-04-27 11:14 | 52.31504 | 4.75188 | 4 ft | 20 kts | 266° |
| 2026-04-27 11:14 | 52.31495 | 4.74953 | 4 ft | 21 kts | 266° |
| 2026-04-27 11:15 | 52.31486 | 4.74713 | 4 ft | 20 kts | 266° |
| 2026-04-27 11:15 | 52.31479 | 4.74497 | 5 ft | 17 kts | 267° |
| 2026-04-27 11:15 | 52.31476 | 4.74375 | 4 ft | 11 kts | 272° |
| 2026-04-27 11:15 | 52.31534 | 4.74303 | 4 ft | 12 kts | 352° |
| 2026-04-27 11:16 | 52.31623 | 4.74305 | 5 ft | 14 kts | 4° |
| 2026-04-27 11:16 | 52.31724 | 4.74314 | 4 ft | 15 kts | 3° |
| 2026-04-27 11:16 | 52.31835 | 4.74324 | 4 ft | 16 kts | 3° |
| 2026-04-27 11:16 | 52.31947 | 4.74334 | 4 ft | 12 kts | 3° |
| 2026-04-27 11:17 | 52.32022 | 4.74282 | 4 ft | 13 kts | 302° |
| 2026-04-27 11:17 | 52.32034 | 4.74119 | 4 ft | 18 kts | 273° |
| 2026-04-27 11:17 | 52.32042 | 4.73878 | 4 ft | 22 kts | 273° |
| 2026-04-27 11:17 | 52.32050 | 4.73622 | 5 ft | 22 kts | 273° |
| 2026-04-27 11:18 | 52.32067 | 4.73413 | 4 ft | 19 kts | 296° |
| 2026-04-27 11:18 | 52.32159 | 4.73257 | 4 ft | 20 kts | 319° |
| 2026-04-27 11:18 | 52.32265 | 4.73105 | 4 ft | 21 kts | 319° |
| 2026-04-27 11:18 | 52.32378 | 4.72948 | 4 ft | 22 kts | 319° |
| 2026-04-27 11:19 | 52.32498 | 4.72780 | 4 ft | 23 kts | 319° |
| 2026-04-27 11:19 | 52.32625 | 4.72602 | 4 ft | 25 kts | 319° |
| 2026-04-27 11:19 | 52.32736 | 4.72413 | 4 ft | 22 kts | 312° |
| 2026-04-27 11:19 | 52.32841 | 4.72220 | 4 ft | 23 kts | 311° |
| 2026-04-27 11:20 | 52.32949 | 4.72018 | 4 ft | 24 kts | 311° |
| 2026-04-27 11:20 | 52.33048 | 4.71835 | 4 ft | 21 kts | 311° |
| 2026-04-27 11:20 | 52.33126 | 4.71690 | 4 ft | 13 kts | 307° |
| 2026-04-27 11:20 | 52.33143 | 4.71545 | 4 ft | 14 kts | 251° |
| 2026-04-27 11:21 | 52.33078 | 4.71422 | 4 ft | 15 kts | 220° |
| 2026-04-27 11:21 | 52.32994 | 4.71300 | 4 ft | 17 kts | 222° |
| 2026-04-27 11:21 | 52.32907 | 4.71175 | 4 ft | 14 kts | 222° |
| 2026-04-27 11:21 | 52.32863 | 4.71032 | 4 ft | 15 kts | 268° |
| 2026-04-27 11:22 | 52.32882 | 4.70911 | 3 ft | 11 kts | 319° |
| 2026-04-27 11:22 | 52.32915 | 4.70896 | 3 ft | 0 kts | 5° |
| 2026-04-27 11:22 | 52.32923 | 4.70898 | 3 ft | 7 kts | 5° |
| 2026-04-27 11:22 | 52.33171 | 4.70924 | 1 ft | 72 kts | 4° |
| 2026-04-27 11:23 | 52.33878 | 4.70993 | 5 ft | 132 kts | 3° |
| 2026-04-27 11:23 | 52.34970 | 4.71089 | 35 ft | 176 kts | 4° |
| 2026-04-27 11:23 | 52.36190 | 4.71196 | 623 ft | 175 kts | 4° |
| 2026-04-27 11:23 | 52.37429 | 4.71299 | 1232 ft | 184 kts | 4° |
| 2026-04-27 11:24 | 52.38770 | 4.71432 | 1723 ft | 203 kts | 5° |
| 2026-04-27 11:24 | 52.40253 | 4.71577 | 2165 ft | 227 kts | 4° |
| 2026-04-27 11:24 | 52.41917 | 4.71667 | 2672 ft | 250 kts | 357° |
| 2026-04-27 11:24 | 52.43630 | 4.70871 | 3463 ft | 259 kts | 330° |
| 2026-04-27 11:25 | 52.45009 | 4.69013 | 4340 ft | 262 kts | 316° |
| 2026-04-27 11:25 | 52.46184 | 4.66666 | 5271 ft | 266 kts | 300° |
| 2026-04-27 11:25 | 52.46741 | 4.63802 | 6123 ft | 272 kts | 276° |
| 2026-04-27 11:25 | 52.46787 | 4.60686 | 7016 ft | 274 kts | 270° |
| 2026-04-27 11:26 | 52.46754 | 4.57548 | 7848 ft | 278 kts | 268° |
| 2026-04-27 11:26 | 52.46368 | 4.54428 | 8658 ft | 283 kts | 247° |
| 2026-04-27 11:26 | 52.45233 | 4.51796 | 9453 ft | 287 kts | 221° |
| 2026-04-27 11:26 | 52.43586 | 4.49916 | 10276 ft | 290 kts | 214° |
| 2026-04-27 11:27 | 52.42022 | 4.47760 | 10802 ft | 304 kts | 233° |
| 2026-04-27 11:27 | 52.40863 | 4.44742 | 11171 ft | 321 kts | 243° |
| 2026-04-27 11:27 | 52.39810 | 4.41473 | 11844 ft | 328 kts | 244° |
| 2026-04-27 11:27 | 52.38753 | 4.38155 | 12671 ft | 329 kts | 244° |
| 2026-04-27 11:28 | 52.37685 | 4.34836 | 13468 ft | 331 kts | 243° |
| 2026-04-27 11:28 | 52.36602 | 4.31498 | 14199 ft | 334 kts | 243° |